createdAt,value
2023-10-19T00:00:46.998Z,99221.97
2023-10-19T00:03:15.009Z,99215.69
2023-10-19T00:05:43.227Z,99217.41
2023-10-19T00:08:20.610Z,99204.13
2023-10-19T00:11:11.669Z,99210.16
2023-10-19T00:13:41.197Z,99211.94
2023-10-19T00:16:17.867Z,99214.50
2023-10-19T00:18:46.389Z,99211.69
2023-10-19T00:21:20.018Z,99211.53
2023-10-19T00:23:52.988Z,99210.56
2023-10-19T00:26:21.423Z,99213.97
2023-10-19T00:28:58.544Z,99196.31
2023-10-19T00:31:28.982Z,99211.09
2023-10-19T00:33:58.605Z,99212.78
2023-10-19T00:36:27.346Z,99210.06
2023-10-19T00:38:55.954Z,99217.88
2023-10-19T00:41:32.822Z,99232.72
2023-10-19T00:44:05.302Z,99228.22
2023-10-19T00:46:55.645Z,99227.19
2023-10-19T00:49:24.716Z,99221.00
2023-10-19T00:52:12.657Z,99214.63
2023-10-19T00:54:50.178Z,99216.22
2023-10-19T00:57:36.557Z,99201.19
2023-10-19T01:00:14.066Z,99200.16
2023-10-19T01:02:46.151Z,99192.09
2023-10-19T01:05:16.588Z,99192.78
2023-10-19T01:07:46.244Z,99186.47
2023-10-19T01:10:21.122Z,99194.19
2023-10-19T01:12:48.667Z,99196.66
2023-10-19T01:15:29.314Z,99207.94
2023-10-19T01:17:59.436Z,99204.34
2023-10-19T01:20:33.351Z,99198.84
2023-10-19T01:23:10.255Z,99191.56
2023-10-19T01:25:57.123Z,99188.69
2023-10-19T01:28:53.345Z,99193.84
2023-10-19T01:31:43.427Z,99190.22
2023-10-19T01:34:11.337Z,99195.31
2023-10-19T01:36:43.635Z,99191.63
2023-10-19T01:39:12.513Z,99187.88
2023-10-19T01:41:42.556Z,99189.50
2023-10-19T01:44:14.478Z,99185.75
2023-10-19T01:46:49.748Z,99182.06
2023-10-19T01:49:31.282Z,99181.88
2023-10-19T01:51:58.934Z,99182.63
2023-10-19T01:54:26.997Z,99171.91
2023-10-19T01:56:59.734Z,99171.81
2023-10-19T01:59:31.951Z,99176.03
2023-10-19T02:01:59.571Z,99171.53
2023-10-19T02:04:27.640Z,99171.31
2023-10-19T02:06:55.742Z,99178.09
2023-10-19T02:09:30.398Z,99164.00
2023-10-19T02:11:58.935Z,99175.22
2023-10-19T02:14:31.937Z,99168.06
2023-10-19T02:17:02.770Z,99168.81
2023-10-19T02:19:31.216Z,99170.41
2023-10-19T02:22:04.768Z,99167.56
2023-10-19T02:24:33.591Z,99167.47
2023-10-19T02:27:02.469Z,99170.84
2023-10-19T02:29:30.425Z,99174.25
2023-10-19T02:31:58.771Z,99161.81
2023-10-19T02:34:26.581Z,99159.91
2023-10-19T02:36:54.506Z,99164.16
2023-10-19T02:39:26.703Z,99156.72
2023-10-19T02:41:55.598Z,99161.69
2023-10-19T02:44:24.574Z,99157.91
2023-10-19T02:46:59.755Z,99155.81
2023-10-19T02:49:31.000Z,99162.59
2023-10-19T02:52:04.824Z,99169.38
2023-10-19T02:54:35.998Z,99162.94
2023-10-19T02:57:08.762Z,99158.31
2023-10-19T02:59:37.204Z,99152.88
2023-10-19T03:02:14.385Z,99153.50
2023-10-19T03:04:43.969Z,99154.25
2023-10-19T03:07:14.660Z,99155.13
2023-10-19T03:10:03.439Z,99150.66
2023-10-19T03:12:31.902Z,99145.38
2023-10-19T03:15:01.395Z,99140.94
2023-10-19T03:17:31.141Z,99141.78
2023-10-19T03:19:58.893Z,99139.06
2023-10-19T03:22:28.807Z,99146.88
2023-10-19T03:25:14.775Z,99144.16
2023-10-19T03:27:45.481Z,99137.91
2023-10-19T03:30:17.175Z,99127.25
2023-10-19T03:32:44.670Z,99142.34
2023-10-19T03:35:16.532Z,99134.34
2023-10-19T03:37:44.168Z,99127.91
2023-10-19T03:40:16.762Z,99122.41
2023-10-19T03:42:47.963Z,99124.00
2023-10-19T03:45:15.656Z,99131.00
2023-10-19T03:47:45.604Z,99115.91
2023-10-19T03:50:21.300Z,99121.81
2023-10-19T03:52:49.258Z,99110.25
2023-10-19T03:55:19.264Z,99108.34
2023-10-19T03:57:55.887Z,99106.44
2023-10-19T04:00:29.040Z,99109.81
2023-10-19T04:02:56.827Z,99105.38
2023-10-19T04:05:26.170Z,99097.38
2023-10-19T04:07:56.577Z,99103.38
2023-10-19T04:10:31.589Z,99104.88
2023-10-19T04:13:01.849Z,99099.50
2023-10-19T04:15:30.633Z,99099.28
2023-10-19T04:17:59.921Z,99099.19
2023-10-19T04:20:30.968Z,99100.75
2023-10-19T04:22:59.937Z,99098.88
2023-10-19T04:25:28.238Z,99099.69
2023-10-19T04:27:58.058Z,99095.16
2023-10-19T04:30:25.778Z,99097.59
2023-10-19T04:32:54.368Z,99098.34
2023-10-19T04:35:24.584Z,99098.25
2023-10-19T04:37:55.696Z,99099.84
2023-10-19T04:40:24.480Z,99099.72
2023-10-19T04:42:54.656Z,99097.94
2023-10-19T04:45:22.220Z,99098.66
2023-10-19T04:47:54.252Z,99102.97
2023-10-19T04:50:22.644Z,99098.66
2023-10-19T04:52:50.221Z,99101.41
2023-10-19T04:55:17.958Z,99099.72
2023-10-19T04:57:45.553Z,99105.84
2023-10-19T05:00:17.947Z,99098.13
2023-10-19T05:02:45.762Z,99107.00
2023-10-19T05:05:15.651Z,99108.69
2023-10-19T05:07:43.759Z,99111.31
2023-10-19T05:10:12.315Z,99105.00
2023-10-19T05:12:39.832Z,99113.78
2023-10-19T05:15:07.798Z,99110.16
2023-10-19T05:17:35.414Z,99122.44
2023-10-19T05:20:06.523Z,99111.78
2023-10-19T05:22:34.427Z,99112.63
2023-10-19T05:25:02.542Z,99109.00
2023-10-19T05:27:30.334Z,99112.41
2023-10-19T05:29:57.865Z,99114.09
2023-10-19T05:32:25.895Z,99107.84
2023-10-19T05:34:53.715Z,99118.31
2023-10-19T05:37:21.287Z,99116.50
2023-10-19T05:39:48.750Z,99110.28
2023-10-19T05:42:16.266Z,99118.97
2023-10-19T05:44:43.765Z,99122.34
2023-10-19T05:47:11.253Z,99121.38
2023-10-19T05:49:38.734Z,99122.13
2023-10-19T05:52:06.191Z,99123.00
2023-10-19T05:54:33.840Z,99123.81
2023-10-19T05:57:01.378Z,99123.81
2023-10-19T05:59:30.682Z,99129.94
2023-10-19T06:01:58.367Z,99127.22
2023-10-19T06:04:26.228Z,99132.50
2023-10-19T06:06:53.865Z,99136.81
2023-10-19T06:09:28.535Z,99131.44
2023-10-19T06:11:59.002Z,99139.25
2023-10-19T06:14:26.540Z,99136.63
2023-10-19T06:16:54.168Z,99139.25
2023-10-19T06:19:21.943Z,99140.00
2023-10-19T06:21:51.883Z,99139.91
2023-10-19T06:24:20.048Z,99141.81
2023-10-19T06:26:47.627Z,99138.19
2023-10-19T06:29:15.217Z,99147.94
2023-10-19T06:31:44.461Z,99146.97
2023-10-19T06:34:12.127Z,99147.69
2023-10-19T06:36:39.614Z,99141.56
2023-10-19T06:39:07.379Z,99153.00
2023-10-19T06:41:35.813Z,99153.00
2023-10-19T06:44:03.426Z,99159.00
2023-10-19T06:46:32.643Z,99156.38
2023-10-19T06:49:02.706Z,99160.63
2023-10-19T06:51:30.631Z,99154.28
2023-10-19T06:53:59.002Z,99163.03
2023-10-19T06:56:27.324Z,99163.78
2023-10-19T06:58:54.993Z,99161.03
2023-10-19T07:01:27.175Z,99166.22
2023-10-19T07:03:55.088Z,99168.75
2023-10-19T07:06:22.711Z,99166.84
2023-10-19T07:08:50.229Z,99164.94
2023-10-19T07:11:17.751Z,99168.31
2023-10-19T07:13:45.371Z,99163.75
2023-10-19T07:16:13.822Z,99174.88
2023-10-19T07:18:41.497Z,99168.53
2023-10-19T07:21:10.873Z,99172.66
2023-10-19T07:23:39.410Z,99179.31
2023-10-19T07:26:07.435Z,99185.97
2023-10-19T07:28:37.748Z,99192.63
2023-10-19T07:31:13.797Z,99187.91
2023-10-19T07:33:46.699Z,99190.09
2023-10-19T07:36:15.731Z,99186.38
2023-10-19T07:38:43.412Z,99185.09
2023-10-19T07:41:11.053Z,99191.88
2023-10-19T07:43:38.836Z,99188.16
2023-10-19T07:46:06.424Z,99186.97
2023-10-19T07:48:33.911Z,99184.13
2023-10-19T07:51:01.457Z,99183.78
2023-10-19T07:53:28.952Z,99187.91
2023-10-19T07:55:58.235Z,99190.44
2023-10-19T07:58:25.886Z,99185.88
2023-10-19T08:00:54.540Z,99183.09
2023-10-19T08:03:22.926Z,99176.78
2023-10-19T08:05:50.455Z,99175.69
2023-10-19T08:08:18.736Z,99175.44
2023-10-19T08:10:46.466Z,99177.06
2023-10-19T08:13:14.015Z,99176.81
2023-10-19T08:15:41.528Z,99176.72
2023-10-19T08:18:09.041Z,99174.56
2023-10-19T08:20:38.374Z,99162.66
2023-10-19T08:23:07.205Z,99160.28
2023-10-19T08:25:52.305Z,99151.91
2023-10-19T08:28:23.584Z,99156.00
2023-10-19T08:31:03.399Z,99152.06
2023-10-19T08:33:31.515Z,99156.91
2023-10-19T08:36:01.158Z,99158.25
2023-10-19T08:38:29.701Z,99164.13
2023-10-19T08:40:58.415Z,99159.44
2023-10-19T08:43:26.935Z,99162.00
2023-10-19T08:45:56.154Z,99157.53
2023-10-19T08:48:23.859Z,99162.84
2023-10-19T08:50:54.157Z,99147.03
2023-10-19T08:53:23.410Z,99141.75
2023-10-19T08:55:52.175Z,99140.06
2023-10-19T08:58:23.185Z,99150.41
2023-10-19T09:00:56.042Z,99154.56
2023-10-19T09:03:27.580Z,99147.84
2023-10-19T09:05:57.551Z,99151.69
2023-10-19T09:08:25.717Z,99137.84
2023-10-19T09:10:58.065Z,99145.13
2023-10-19T09:13:26.409Z,99142.94
2023-10-19T09:15:57.986Z,99145.38
2023-10-19T09:18:29.606Z,99147.88
2023-10-19T09:21:08.793Z,99143.25
2023-10-19T09:23:37.776Z,99139.41
2023-10-19T09:26:07.112Z,99138.66
2023-10-19T09:28:39.026Z,99144.09
2023-10-19T09:31:11.363Z,99134.78
2023-10-19T09:33:42.190Z,99131.63
2023-10-19T09:36:14.839Z,99132.06
2023-10-19T09:38:54.563Z,99119.25
2023-10-19T09:41:23.011Z,99122.50
2023-10-19T09:43:52.230Z,99129.13
2023-10-19T09:46:27.582Z,99122.22
2023-10-19T09:48:55.246Z,99119.88
2023-10-19T09:51:26.117Z,99120.78
2023-10-19T09:54:18.376Z,99135.00
2023-10-19T09:57:03.114Z,99136.13
2023-10-19T09:59:40.505Z,99133.25
2023-10-19T10:02:15.272Z,99129.34
2023-10-19T10:04:46.820Z,99126.22
2023-10-19T10:07:25.497Z,99128.16
2023-10-19T10:10:00.343Z,99121.19
2023-10-19T10:12:29.429Z,99117.69
2023-10-19T10:15:10.168Z,99121.75
2023-10-19T10:17:39.831Z,99118.94
2023-10-19T10:20:18.303Z,99114.09
2023-10-19T10:23:06.653Z,99110.13
2023-10-19T10:25:35.837Z,99100.63
2023-10-19T10:28:06.368Z,99102.03
2023-10-19T10:30:33.974Z,99098.13
2023-10-19T10:33:01.700Z,99103.34
2023-10-19T10:35:38.167Z,99093.66
2023-10-19T10:38:13.006Z,99096.19
2023-10-19T10:40:49.405Z,99091.69
2023-10-19T10:43:18.729Z,99102.09
2023-10-19T10:45:46.390Z,99101.97
2023-10-19T10:48:20.279Z,99097.19
2023-10-19T10:50:48.028Z,99108.28
2023-10-19T10:53:19.310Z,99103.41
2023-10-19T10:55:47.144Z,99106.22
2023-10-19T10:58:19.259Z,99100.53
2023-10-19T11:00:58.255Z,99095.81
2023-10-19T11:03:31.105Z,99098.81
2023-10-19T11:06:09.408Z,99094.06
2023-10-19T11:08:39.375Z,99102.75
2023-10-19T11:11:13.679Z,99096.72
2023-10-19T11:13:41.490Z,99100.53
2023-10-19T11:16:10.630Z,99103.31
2023-10-19T11:18:46.761Z,99101.34
2023-10-19T11:21:19.391Z,99107.13
2023-10-19T11:23:50.036Z,99107.28
2023-10-19T11:26:22.647Z,99097.03
2023-10-19T11:29:00.274Z,99099.56
2023-10-19T11:31:29.062Z,99083.16
2023-10-19T11:33:56.620Z,99079.91
2023-10-19T11:36:25.348Z,99071.34
2023-10-19T11:38:54.853Z,99062.25
2023-10-19T11:41:24.357Z,99074.75
2023-10-19T11:43:52.190Z,99075.56
2023-10-19T11:46:19.873Z,99073.47
2023-10-19T11:48:48.129Z,99069.25
2023-10-19T11:51:16.397Z,99059.59
2023-10-19T11:53:44.202Z,99061.41
2023-10-19T11:56:17.835Z,99055.94
2023-10-19T11:58:48.512Z,99051.44
2023-10-19T12:01:18.372Z,99062.09
2023-10-19T12:03:49.631Z,99056.78
2023-10-19T12:06:21.281Z,99041.78
2023-10-19T12:08:49.096Z,99049.78
2023-10-19T12:11:17.733Z,99047.38
2023-10-19T12:13:46.283Z,99042.34
2023-10-19T12:16:16.803Z,99045.97
2023-10-19T12:18:46.314Z,99036.72
2023-10-19T12:21:13.952Z,99030.81
2023-10-19T12:23:44.550Z,99039.22
2023-10-19T12:26:12.906Z,99035.28
2023-10-19T12:28:42.503Z,99044.78
2023-10-19T12:31:10.506Z,99045.50
2023-10-19T12:33:39.753Z,99050.50
2023-10-19T12:36:36.592Z,99039.69
2023-10-19T12:39:09.305Z,99032.44
2023-10-19T12:41:38.620Z,99028.59
2023-10-19T12:44:13.415Z,99025.38
2023-10-19T12:46:42.222Z,99022.28
2023-10-19T12:49:15.251Z,99026.91
2023-10-19T12:51:43.561Z,99021.84
2023-10-19T12:54:14.614Z,99018.47
2023-10-19T12:56:42.413Z,99017.75
2023-10-19T12:59:10.326Z,99020.56
2023-10-19T13:01:38.183Z,99011.72
2023-10-19T13:04:19.559Z,99009.22
2023-10-19T13:06:48.832Z,99003.06
2023-10-19T13:09:22.890Z,99006.28
2023-10-19T13:11:53.041Z,98992.16
2023-10-19T13:14:20.746Z,98994.81
2023-10-19T13:16:51.220Z,98994.69
2023-10-19T13:19:25.134Z,98999.72
2023-10-19T13:21:53.054Z,98998.47
2023-10-19T13:24:23.398Z,99003.66
2023-10-19T13:26:52.189Z,99000.16
2023-10-19T13:29:21.526Z,98995.69
2023-10-19T13:31:52.661Z,98993.97
2023-10-19T13:34:20.573Z,98989.53
2023-10-19T13:36:48.239Z,98983.09
2023-10-19T13:39:18.157Z,98981.13
2023-10-19T13:41:45.828Z,98976.66
2023-10-19T13:44:13.359Z,98974.13
2023-10-19T13:46:40.911Z,98979.84
2023-10-19T13:49:10.868Z,98982.34
2023-10-19T13:51:40.216Z,98974.22
2023-10-19T13:54:08.046Z,98969.53
2023-10-19T13:56:36.662Z,98971.75
2023-10-19T13:59:04.710Z,98971.31
2023-10-19T14:01:32.272Z,98958.41
2023-10-19T14:03:59.909Z,98962.31
2023-10-19T14:06:28.263Z,98961.91
2023-10-19T14:08:56.094Z,98960.47
2023-10-19T14:11:24.561Z,98959.19
2023-10-19T14:13:53.746Z,98964.03
2023-10-19T14:16:21.670Z,98960.97
2023-10-19T14:18:49.362Z,98962.91
2023-10-19T14:21:20.229Z,98960.38
2023-10-19T14:23:49.241Z,98949.63
2023-10-19T14:26:17.463Z,98951.28
2023-10-19T14:28:45.117Z,98946.69
2023-10-19T14:31:13.480Z,98939.69
2023-10-19T14:33:41.132Z,98927.38
2023-10-19T14:36:10.179Z,98930.19
2023-10-19T14:38:39.489Z,98925.00
2023-10-19T14:41:07.011Z,98908.47
2023-10-19T14:43:34.593Z,98904.50
2023-10-19T14:46:02.852Z,98908.28
2023-10-19T14:48:30.652Z,98900.72
2023-10-19T14:50:59.050Z,98890.50
2023-10-19T14:53:26.813Z,98893.53
2023-10-19T14:55:58.401Z,98885.13
2023-10-19T14:58:30.691Z,98870.97
2023-10-19T15:00:58.996Z,98869.53
2023-10-19T15:03:26.914Z,98869.53
2023-10-19T15:05:54.783Z,98854.44
2023-10-19T15:08:27.889Z,98849.44
2023-10-19T15:10:55.973Z,98847.66
2023-10-19T15:13:23.869Z,98853.50
2023-10-19T15:15:52.151Z,98847.94
2023-10-19T15:18:19.776Z,98850.34
2023-10-19T15:20:47.423Z,98855.69
2023-10-19T15:23:15.161Z,98864.38
2023-10-19T15:25:42.769Z,98871.53
2023-10-19T15:28:11.728Z,98869.00
2023-10-19T15:30:39.272Z,98872.06
2023-10-19T15:33:06.873Z,98869.78
2023-10-19T15:35:37.468Z,98876.50
2023-10-19T15:38:06.107Z,98872.81
2023-10-19T15:40:35.894Z,98868.03
2023-10-19T15:43:03.813Z,98853.50
2023-10-19T15:45:35.825Z,98854.84
2023-10-19T15:48:03.860Z,98849.09
2023-10-19T15:50:31.670Z,98842.25
2023-10-19T15:52:59.252Z,98840.00
2023-10-19T15:55:27.202Z,98825.41
2023-10-19T15:57:56.252Z,98823.03
2023-10-19T16:00:24.070Z,98827.91
2023-10-19T16:02:52.354Z,98828.31
2023-10-19T16:05:20.228Z,98830.38
2023-10-19T16:07:48.344Z,98819.13
2023-10-19T16:10:16.482Z,98813.38
2023-10-19T16:12:44.503Z,98824.41
2023-10-19T16:15:16.021Z,98821.28
2023-10-19T16:17:44.811Z,98817.63
2023-10-19T16:20:14.363Z,98817.31
2023-10-19T16:22:42.875Z,98816.72
2023-10-19T16:25:11.743Z,98818.78
2023-10-19T16:27:39.787Z,98820.00
2023-10-19T16:30:13.813Z,98826.53
2023-10-19T16:32:42.018Z,98813.66
2023-10-19T16:35:11.513Z,98821.88
2023-10-19T16:37:39.350Z,98821.16
2023-10-19T16:40:07.675Z,98821.53
2023-10-19T16:42:35.189Z,98823.59
2023-10-19T16:45:04.709Z,98832.78
2023-10-19T16:47:32.455Z,98829.56
2023-10-19T16:50:00.136Z,98824.50
2023-10-19T16:52:28.106Z,98829.91
2023-10-19T16:54:55.586Z,98834.50
2023-10-19T16:57:23.103Z,98838.13
2023-10-19T16:59:51.500Z,98842.72
2023-10-19T17:02:19.127Z,98838.38
2023-10-19T17:04:50.157Z,98837.53
2023-10-19T17:07:17.902Z,98836.81
2023-10-19T17:09:46.425Z,98842.97
2023-10-19T17:12:13.896Z,98838.63
2023-10-19T17:14:43.049Z,98842.25
2023-10-19T17:17:10.830Z,98847.44
2023-10-19T17:19:38.537Z,98835.28
2023-10-19T17:22:06.132Z,98829.13
2023-10-19T17:24:34.303Z,98830.09
2023-10-19T17:27:03.993Z,98827.56
2023-10-19T17:29:31.597Z,98825.06
2023-10-19T17:31:59.211Z,98828.66
2023-10-19T17:34:26.767Z,98829.75
2023-10-19T17:36:54.230Z,98821.91
2023-10-19T17:39:24.116Z,98815.19
2023-10-19T17:41:52.377Z,98797.00
2023-10-19T17:44:20.033Z,98799.16
2023-10-19T17:46:48.349Z,98788.09
2023-10-19T17:49:17.092Z,98778.00
2023-10-19T17:51:45.967Z,98777.53
2023-10-19T17:54:13.397Z,98777.91
2023-10-19T17:56:40.850Z,98776.47
2023-10-19T17:59:09.163Z,98762.78
2023-10-19T18:01:37.287Z,98760.47
2023-10-19T18:04:05.665Z,98762.66
2023-10-19T18:06:33.193Z,98763.88
2023-10-19T18:09:01.450Z,98775.41
2023-10-19T18:11:28.997Z,98782.53
2023-10-19T18:13:56.594Z,98775.69
2023-10-19T18:16:24.209Z,98779.41
2023-10-19T18:18:52.703Z,98792.78
2023-10-19T18:21:20.209Z,98792.06
2023-10-19T18:23:48.671Z,98783.38
2023-10-19T18:26:17.101Z,98777.38
2023-10-19T18:28:45.661Z,98776.66
2023-10-19T18:31:13.288Z,98780.25
2023-10-19T18:33:42.281Z,98779.53
2023-10-19T18:36:16.918Z,98772.56
2023-10-19T18:38:44.516Z,98779.69
2023-10-19T18:41:12.822Z,98774.59
2023-10-19T18:43:40.487Z,98767.75
2023-10-19T18:46:08.046Z,98768.84
2023-10-19T18:48:36.460Z,98766.19
2023-10-19T18:51:06.978Z,98767.25
2023-10-19T18:53:35.849Z,98763.91
2023-10-19T18:56:06.840Z,98760.66
2023-10-19T18:58:35.253Z,98759.09
2023-10-19T19:01:04.362Z,98762.00
2023-10-19T19:03:34.867Z,98751.50
2023-10-19T19:06:05.549Z,98738.41
2023-10-19T19:08:34.596Z,98731.66
2023-10-19T19:11:17.061Z,98740.56
2023-10-19T19:13:45.626Z,98728.66
2023-10-19T19:16:13.291Z,98728.66
2023-10-19T19:18:42.563Z,98736.72
2023-10-19T19:21:14.471Z,98734.22
2023-10-19T19:23:42.574Z,98729.03
2023-10-19T19:26:15.066Z,98724.69
2023-10-19T19:28:47.986Z,98712.53
2023-10-19T19:31:19.579Z,98713.53
2023-10-19T19:33:48.602Z,98717.19
2023-10-19T19:36:17.122Z,98718.28
2023-10-19T19:38:46.358Z,98718.28
2023-10-19T19:41:14.929Z,98724.56
2023-10-19T19:43:44.498Z,98725.38
2023-10-19T19:46:15.186Z,98719.38
2023-10-19T19:48:42.853Z,98714.91
2023-10-19T19:51:10.879Z,98714.09
2023-10-19T19:53:39.320Z,98703.63
2023-10-19T19:56:09.106Z,98702.91
2023-10-19T19:58:37.194Z,98709.03
2023-10-19T20:01:04.720Z,98711.66
2023-10-19T20:03:33.334Z,98719.59
2023-10-19T20:06:01.153Z,98715.28
2023-10-19T20:08:28.724Z,98719.75
2023-10-19T20:10:56.515Z,98726.81
2023-10-19T20:13:24.435Z,98722.50
2023-10-19T20:15:54.873Z,98707.56
2023-10-19T20:18:22.551Z,98698.81
2023-10-19T20:20:50.164Z,98690.97
2023-10-19T20:23:21.369Z,98698.19
2023-10-19T20:25:49.683Z,98705.19
2023-10-19T20:28:18.832Z,98702.53
2023-10-19T20:30:47.091Z,98711.19
2023-10-19T20:33:15.015Z,98707.56
2023-10-19T20:35:42.712Z,98698.69
2023-10-19T20:38:11.624Z,98700.38
2023-10-19T20:40:42.593Z,98699.31
2023-10-19T20:43:11.009Z,98701.81
2023-10-19T20:45:38.954Z,98693.66
2023-10-19T20:48:08.828Z,98689.09
2023-10-19T20:50:36.666Z,98674.75
2023-10-19T20:53:04.609Z,98673.84
2023-10-19T20:55:32.305Z,98661.09
2023-10-19T20:58:00.858Z,98650.50
2023-10-19T21:00:28.424Z,98653.88
2023-10-19T21:02:56.916Z,98654.47
2023-10-19T21:05:26.396Z,98655.31
2023-10-19T21:07:54.667Z,98646.41
2023-10-19T21:10:22.518Z,98648.91
2023-10-19T21:12:50.822Z,98640.88
2023-10-19T21:15:18.825Z,98638.22
2023-10-19T21:17:50.708Z,98616.22
2023-10-19T21:20:20.720Z,98601.56
2023-10-19T21:22:50.775Z,98598.69
2023-10-19T21:25:21.300Z,98607.56
2023-10-19T21:27:50.701Z,98605.91
2023-10-19T21:30:18.861Z,98609.28
2023-10-19T21:32:47.743Z,98597.72
2023-10-19T21:35:16.566Z,98590.50
2023-10-19T21:37:44.965Z,98575.59
2023-10-19T21:40:13.412Z,98568.63
2023-10-19T21:42:46.558Z,98566.13
2023-10-19T21:45:15.914Z,98561.78
2023-10-19T21:47:44.539Z,98571.53
2023-10-19T21:50:12.483Z,98569.72
2023-10-19T21:52:42.217Z,98567.91
2023-10-19T21:55:11.963Z,98573.19
2023-10-19T21:57:40.709Z,98595.06
2023-10-19T22:00:16.238Z,98593.13
2023-10-19T22:03:00.231Z,98584.25
2023-10-19T22:05:32.852Z,98581.50
2023-10-19T22:08:00.529Z,98589.28
2023-10-19T22:10:28.884Z,98579.41
2023-10-19T22:12:56.467Z,98578.47
2023-10-19T22:15:24.078Z,98571.38
2023-10-19T22:17:51.906Z,98563.31
2023-10-19T22:20:20.013Z,98558.84
2023-10-19T22:22:47.972Z,98560.66
2023-10-19T22:25:15.715Z,98556.19
2023-10-19T22:27:43.244Z,98553.44
2023-10-19T22:30:13.441Z,98554.28
2023-10-19T22:32:41.206Z,98558.72
2023-10-19T22:35:10.996Z,98555.97
2023-10-19T22:37:39.289Z,98544.53
2023-10-19T22:40:07.980Z,98547.16
2023-10-19T22:42:35.567Z,98548.97
2023-10-19T22:45:05.679Z,98555.25
2023-10-19T22:47:35.276Z,98550.06
2023-10-19T22:50:03.172Z,98546.72
2023-10-19T22:52:31.204Z,98547.56
2023-10-19T22:54:58.861Z,98556.31
2023-10-19T22:57:27.301Z,98559.13
2023-10-19T22:59:54.760Z,98547.66
2023-10-19T23:02:22.338Z,98546.13
2023-10-19T23:04:50.248Z,98541.81
2023-10-19T23:07:18.359Z,98542.63
2023-10-19T23:09:45.885Z,98548.88
2023-10-19T23:12:18.664Z,98541.09
2023-10-19T23:14:47.730Z,98528.94
2023-10-19T23:17:23.860Z,98522.22
2023-10-19T23:19:54.638Z,98517.16
2023-10-19T23:22:22.425Z,98513.91
2023-10-19T23:24:57.316Z,98524.50
2023-10-19T23:27:27.326Z,98513.06
2023-10-19T23:29:54.851Z,98508.63
2023-10-19T23:32:23.838Z,98513.78
2023-10-19T23:34:51.678Z,98505.75
2023-10-19T23:37:19.394Z,98510.16
2023-10-19T23:39:46.890Z,98511.97
2023-10-19T23:42:18.461Z,98499.84
2023-10-19T23:44:48.030Z,98506.09
2023-10-19T23:47:16.080Z,98502.50
2023-10-19T23:49:43.638Z,98491.91
2023-10-19T23:52:12.639Z,98494.56
2023-10-19T23:54:40.442Z,98485.78
2023-10-19T23:57:07.958Z,98489.50
2023-10-19T23:59:37.648Z,98496.59
